Time;durP1;ratioP1;P1;durP2;ratioP2;P2;SDS_P1;SDS_P2;PMS_P1;PMS_P2;Temp;Humidity;BMP_temperature;BMP_pressure;BME280_temperature;BME280_humidity;BME280_pressure;Samples;Min_cycle;Max_cycle;Signal;HPM_P1;HPM_P2
2021/06/04 00:07:18;;;;;;;0.50;0.50;;;21.20;99.90;;;;;;20682752;28;20239;-68
2021/06/04 00:17:23;;;;;;;0.30;0.20;;;21.10;99.90;;;;;;20697770;28;20209;-66
2021/06/04 00:27:31;;;;;;;0.30;0.27;;;21.00;99.90;;;;;;20677839;28;20259;-67
2021/06/04 00:37:35;;;;;;;1.60;0.50;;;20.80;99.90;;;;;;20697195;28;21040;-67
2021/06/04 00:47:39;;;;;;;0.60;0.60;;;20.80;99.90;;;;;;20696448;28;20314;-68
2021/06/04 00:57:43;;;;;;;0.50;0.43;;;20.70;99.90;;;;;;20694422;28;20202;-67
2021/06/04 01:08:03;;;;;;;0.53;0.53;;;20.60;99.90;;;;;;20677093;28;20235;-67
2021/06/04 01:18:11;;;;;;;0.90;0.60;;;20.60;99.90;;;;;;20612303;28;20211;-67
2021/06/04 01:28:22;;;;;;;1.37;0.93;;;20.50;99.90;;;;;;20595555;28;20238;-67
2021/06/04 01:38:31;;;;;;;3.37;1.30;;;20.60;99.90;;;;;;20611682;28;20215;-66
2021/06/04 01:48:41;;;;;;;0.77;0.50;;;20.60;99.90;;;;;;20611358;28;20580;-68
2021/06/04 02:09:09;;;;;;;1.20;1.10;;;20.70;99.90;;;;;;20298906;29;20237;-68
2021/06/04 02:19:24;;;;;;;0.50;0.30;;;20.80;99.90;;;;;;20291600;29;20520;-67
2021/06/04 02:29:34;;;;;;;0.70;0.40;;;20.70;99.90;;;;;;20309207;29;20470;-67
2021/06/04 02:39:41;;;;;;;0.73;0.50;;;20.70;99.90;;;;;;20306250;29;20202;-68
2021/06/04 02:49:46;;;;;;;0.83;0.83;;;20.80;99.90;;;;;;20307807;29;20300;-68
2021/06/04 02:59:50;;;;;;;0.40;0.40;;;20.80;99.90;;;;;;20304304;29;20718;-67
2021/06/04 03:09:56;;;;;;;0.47;0.47;;;20.70;99.90;;;;;;20335894;29;20714;-67
2021/06/04 03:20:00;;;;;;;0.50;0.50;;;20.70;99.90;;;;;;20380846;29;20189;-67
2021/06/04 03:30:06;;;;;;;0.60;0.33;;;20.70;99.90;;;;;;20380474;29;20600;-67
2021/06/04 03:40:15;;;;;;;0.53;0.53;;;20.80;99.90;;;;;;20378596;29;20218;-67
2021/06/04 03:50:20;;;;;;;0.70;0.70;;;20.80;99.90;;;;;;20377173;29;20237;-67
2021/06/04 04:00:30;;;;;;;0.83;0.53;;;20.80;99.90;;;;;;20416932;23;20251;-66
2021/06/04 04:10:35;;;;;;;0.53;0.40;;;20.70;99.90;;;;;;20658082;28;20244;-66
2021/06/04 04:20:41;;;;;;;0.33;0.33;;;20.60;99.90;;;;;;20680877;28;20554;-66
2021/06/04 04:30:46;;;;;;;0.40;0.40;;;20.60;99.90;;;;;;20682578;28;20218;-66
2021/06/04 04:40:58;;;;;;;0.97;0.60;;;20.80;99.90;;;;;;20696662;28;20195;-66
2021/06/04 04:51:05;;;;;;;4.17;0.60;;;20.70;99.90;;;;;;20680553;28;20763;-67
2021/06/04 05:01:10;;;;;;;1.13;0.70;;;21.00;99.90;;;;;;20697434;28;20929;-66
2021/06/04 05:11:15;;;;;;;0.63;0.60;;;21.00;99.90;;;;;;20653734;28;20231;-68
2021/06/04 05:21:22;;;;;;;0.80;0.80;;;21.20;99.90;;;;;;20623818;28;21130;-65
2021/06/04 05:31:26;;;;;;;1.27;0.60;;;21.30;99.90;;;;;;20611818;28;20588;-66
2021/06/04 05:41:30;;;;;;;0.43;0.43;;;21.20;99.90;;;;;;20623122;28;20223;-69
2021/06/04 05:51:51;;;;;;;1.07;0.40;;;21.60;99.90;;;;;;20639401;28;20435;-67
2021/06/04 06:01:54;;;;;;;0.83;0.83;;;21.80;99.90;;;;;;20614198;28;20232;-67
2021/06/04 06:11:59;;;;;;;4.57;1.17;;;22.10;99.90;;;;;;20588100;28;20222;-67
2021/06/04 06:22:02;;;;;;;0.20;0.10;;;22.30;99.90;;;;;;20634547;28;20195;-67
2021/06/04 06:32:08;;;;;;;0.65;0.55;;;22.60;99.90;;;;;;20635537;28;20233;-66
2021/06/04 06:42:12;;;;;;;1.37;1.27;;;22.50;99.90;;;;;;20597018;28;20198;-64
2021/06/04 06:52:17;;;;;;;1.00;0.90;;;22.50;99.90;;;;;;20590398;28;20302;-66
2021/06/04 07:02:22;;;;;;;0.30;0.30;;;22.40;99.90;;;;;;20553232;28;21121;-67
2021/06/04 07:12:27;;;;;;;0.43;0.30;;;22.70;99.90;;;;;;20669390;28;20309;-68
2021/06/04 07:22:31;;;;;;;0.98;0.77;;;23.20;99.90;;;;;;20701116;28;20210;-65
2021/06/04 07:32:36;;;;;;;0.80;0.68;;;23.20;99.90;;;;;;20700258;28;20710;-65
2021/06/04 07:42:40;;;;;;;4.63;3.42;;;23.40;99.90;;;;;;20701280;28;20648;-68
2021/06/04 07:52:44;;;;;;;1.17;1.10;;;23.90;99.90;;;;;;20698923;28;20218;-72
2021/06/04 08:02:49;;;;;;;0.90;0.68;;;24.20;99.90;;;;;;20680153;28;20227;-68
2021/06/04 08:12:54;;;;;;;1.00;0.65;;;24.20;99.90;;;;;;20694807;28;20241;-68
2021/06/04 08:22:59;;;;;;;1.30;0.93;;;24.20;99.90;;;;;;20698373;28;20206;-68
2021/06/04 08:33:05;;;;;;;0.82;0.70;;;24.20;99.90;;;;;;20595370;28;20231;-66
2021/06/04 08:43:31;;;;;;;0.47;0.30;;;24.10;99.90;;;;;;20596843;28;20200;-65
2021/06/04 08:53:43;;;;;;;2.35;1.67;;;23.90;99.90;;;;;;20533245;28;20924;-65
2021/06/04 09:03:51;;;;;;;0.90;0.70;;;24.00;99.90;;;;;;20529887;28;20227;-65
2021/06/04 09:13:55;;;;;;;0.93;0.65;;;24.10;99.90;;;;;;20641385;28;20260;-64
2021/06/04 09:24:01;;;;;;;0.45;0.45;;;24.10;99.90;;;;;;20583680;28;20322;-66
2021/06/04 09:34:19;;;;;;;5.70;1.08;;;24.30;99.90;;;;;;20610829;28;20576;-66
2021/06/04 09:44:27;;;;;;;1.02;0.82;;;24.60;99.90;;;;;;20532045;28;20212;-64
2021/06/04 09:54:33;;;;;;;0.95;0.40;;;24.70;99.90;;;;;;20527219;28;20406;-64
2021/06/04 10:04:37;;;;;;;1.52;1.08;;;25.20;99.90;;;;;;20528951;28;20905;-66
2021/06/04 10:14:49;;;;;;;0.38;0.38;;;24.90;99.90;;;;;;20670703;28;20377;-67
2021/06/04 10:24:56;;;;;;;3.08;1.00;;;25.90;99.90;;;;;;20660522;28;20657;-66
2021/06/04 10:35:11;;;;;;;10.05;1.80;;;26.00;99.90;;;;;;20624516;28;21145;-67
2021/06/04 10:45:20;;;;;;;2.25;1.63;;;26.00;99.90;;;;;;20622190;28;20587;-66
2021/06/04 10:55:30;;;;;;;0.73;0.73;;;25.40;99.90;;;;;;20620562;28;20234;-67
2021/06/04 11:06:06;;;;;;;11.15;1.55;;;25.00;99.90;;;;;;20604255;28;20226;-68
2021/06/04 11:16:18;;;;;;;3.10;1.25;;;25.40;99.90;;;;;;20492298;28;20246;-68
2021/06/04 11:26:27;;;;;;;0.75;0.63;;;25.00;99.90;;;;;;20602930;28;20322;-67
2021/06/04 11:36:32;;;;;;;0.55;0.50;;;24.80;99.90;;;;;;20619048;28;20227;-66
2021/06/04 11:46:36;;;;;;;1.08;0.98;;;24.90;99.90;;;;;;20620888;28;20198;-67
2021/06/04 11:56:45;;;;;;;4.13;0.80;;;25.00;99.90;;;;;;20623170;28;20211;-68
2021/06/04 12:07:05;;;;;;;1.02;0.93;;;25.30;99.90;;;;;;20607995;28;20232;-66
2021/06/04 12:17:28;;;;;;;4.07;2.45;;;25.40;99.90;;;;;;20631438;28;20378;-65
2021/06/04 12:28:02;;;;;;;2.15;1.10;;;25.70;99.90;;;;;;20596128;28;20227;-66
2021/06/04 12:38:24;;;;;;;1.02;1.02;;;25.70;99.90;;;;;;20592953;28;20294;-66
2021/06/04 12:48:32;;;;;;;6.32;1.73;;;27.30;99.90;;;;;;20612685;28;20223;-64
2021/06/04 12:58:38;;;;;;;0.63;0.63;;;28.90;99.90;;;;;;20611393;28;20191;-64
2021/06/04 13:08:47;;;;;;;1.77;1.33;;;29.20;99.90;;;;;;20635753;28;20688;-65
2021/06/04 13:19:00;;;;;;;2.00;1.40;;;29.60;99.90;;;;;;20628881;28;20191;-65
2021/06/04 13:29:08;;;;;;;0.52;0.40;;;30.40;99.90;;;;;;20591847;28;20278;-66
2021/06/04 13:39:19;;;;;;;1.23;1.00;;;28.20;99.90;;;;;;20621891;28;20340;-69
2021/06/04 13:49:30;;;;;;;2.80;1.88;;;28.20;99.90;;;;;;20610279;28;20601;-70
2021/06/04 13:59:34;;;;;;;0.98;0.85;;;28.20;99.90;;;;;;20605086;28;20246;-68
2021/06/04 14:09:38;;;;;;;3.42;1.02;;;28.40;99.90;;;;;;20657251;28;20233;-69
2021/06/04 14:19:52;;;;;;;1.15;1.00;;;27.50;99.90;;;;;;20635470;28;20204;-67
2021/06/04 14:30:02;;;;;;;0.95;0.80;;;26.20;99.90;;;;;;20623374;28;20223;-66
2021/06/04 14:40:16;;;;;;;10.10;0.90;;;26.20;99.90;;;;;;20623861;28;20406;-67
2021/06/04 14:50:22;;;;;;;10.85;1.33;;;27.30;99.90;;;;;;20621821;28;20582;-66
2021/06/04 15:00:27;;;;;;;1.98;1.48;;;27.50;99.90;;;;;;20601236;28;20604;-67
2021/06/04 15:10:30;;;;;;;0.50;0.50;;;27.10;99.90;;;;;;20659060;28;20237;-66
2021/06/04 15:20:36;;;;;;;0.90;0.90;;;27.10;99.90;;;;;;20631972;28;20195;-66
2021/06/04 15:30:39;;;;;;;3.22;1.95;;;28.80;99.90;;;;;;20619250;28;20235;-67
2021/06/04 15:40:46;;;;;;;0.88;0.88;;;28.70;99.90;;;;;;20618247;28;20216;-68
2021/06/04 15:50:50;;;;;;;1.10;0.82;;;28.50;99.90;;;;;;20599506;28;20727;-68
2021/06/04 16:00:56;;;;;;;1.38;1.15;;;27.90;99.90;;;;;;20615267;28;20250;-67
2021/06/04 16:11:00;;;;;;;1.27;0.95;;;28.60;99.90;;;;;;20657524;28;20230;-67
2021/06/04 16:21:05;;;;;;;4.82;0.93;;;29.30;99.90;;;;;;20615674;28;21170;-67
2021/06/04 16:31:11;;;;;;;0.60;0.60;;;28.20;99.90;;;;;;20614065;28;20235;-67
2021/06/04 16:41:16;;;;;;;0.85;0.75;;;27.00;99.90;;;;;;20613641;28;20202;-66
2021/06/04 16:51:20;;;;;;;1.15;0.93;;;26.30;99.90;;;;;;20594690;28;20231;-68
2021/06/04 17:01:24;;;;;;;1.05;0.77;;;26.40;99.90;;;;;;20617212;28;20223;-66
2021/06/04 17:11:27;;;;;;;1.25;0.93;;;26.10;99.90;;;;;;20687015;28;20226;-67
2021/06/04 17:21:32;;;;;;;1.95;1.30;;;25.90;99.90;;;;;;20635296;28;20598;-66
2021/06/04 17:31:35;;;;;;;1.10;1.10;;;26.70;99.90;;;;;;20602657;28;20223;-65
2021/06/04 17:41:40;;;;;;;0.75;0.70;;;27.40;99.90;;;;;;20674577;28;20197;-67
2021/06/04 17:51:43;;;;;;;0.73;0.65;;;27.10;99.90;;;;;;20688340;28;20226;-66
2021/06/04 18:01:49;;;;;;;1.47;1.37;;;27.10;99.90;;;;;;20668758;28;20450;-67
2021/06/04 18:11:53;;;;;;;1.40;1.30;;;26.40;99.90;;;;;;20657639;28;20325;-68
2021/06/04 18:21:58;;;;;;;1.40;0.93;;;25.50;99.90;;;;;;20690131;28;20785;-67
2021/06/04 18:32:02;;;;;;;0.95;0.65;;;25.40;99.90;;;;;;20678827;28;20711;-65
2021/06/04 18:42:11;;;;;;;5.45;1.38;;;24.80;99.90;;;;;;20609553;28;20230;-66
2021/06/04 18:52:14;;;;;;;2.13;0.85;;;23.80;99.90;;;;;;20631090;28;20223;-68
2021/06/04 19:02:18;;;;;;;2.65;1.35;;;22.90;99.90;;;;;;20661800;28;20643;-66
2021/06/04 19:12:21;;;;;;;4.83;0.90;;;22.80;99.90;;;;;;20687771;28;20474;-66
2021/06/04 19:22:26;;;;;;;0.53;0.30;;;22.50;99.90;;;;;;20695399;28;20376;-65
2021/06/04 19:32:31;;;;;;;1.17;0.60;;;22.50;99.90;;;;;;20621202;28;20227;-65
2021/06/04 19:42:37;;;;;;;2.50;0.97;;;22.10;99.90;;;;;;20621000;28;20207;-67
2021/06/04 19:52:42;;;;;;;1.83;0.97;;;21.90;99.90;;;;;;20686478;28;20313;-65
2021/06/04 20:02:50;;;;;;;0.63;0.53;;;21.70;99.90;;;;;;20690664;28;20219;-64
2021/06/04 20:12:57;;;;;;;1.60;0.87;;;21.60;99.90;;;;;;20646873;28;20683;-64
2021/06/04 20:23:06;;;;;;;0.83;0.77;;;21.50;99.90;;;;;;20686652;28;20734;-66
2021/06/04 20:33:12;;;;;;;3.07;1.97;;;21.40;99.90;;;;;;20601223;28;20242;-64
2021/06/04 20:43:19;;;;;;;5.43;1.30;;;21.30;99.90;;;;;;20609832;28;20200;-65
2021/06/04 20:53:26;;;;;;;1.23;0.60;;;21.20;99.90;;;;;;20613637;28;20231;-65
2021/06/04 21:03:31;;;;;;;7.97;1.27;;;21.00;99.90;;;;;;20615953;28;20231;-65
2021/06/04 21:13:36;;;;;;;0.80;0.57;;;21.00;99.90;;;;;;20678550;28;20714;-66
2021/06/04 21:23:42;;;;;;;0.60;0.60;;;21.10;99.90;;;;;;20693203;28;20203;-66
2021/06/04 21:33:46;;;;;;;1.50;0.87;;;21.00;99.90;;;;;;20632342;28;20234;-66
2021/06/04 21:43:52;;;;;;;1.43;1.37;;;20.90;99.90;;;;;;20613296;28;20287;-66
2021/06/04 21:53:57;;;;;;;0.43;0.33;;;20.50;99.90;;;;;;20613157;28;20223;-66
2021/06/04 22:04:04;;;;;;;1.63;1.53;;;20.30;99.90;;;;;;20609835;28;20251;-65
2021/06/04 22:14:08;;;;;;;0.70;0.70;;;20.20;99.90;;;;;;20679479;28;20222;-64
2021/06/04 22:24:18;;;;;;;2.00;0.70;;;20.50;99.90;;;;;;20695717;28;20201;-66
2021/06/04 22:34:25;;;;;;;1.97;1.10;;;20.50;99.90;;;;;;20705254;28;20545;-66
2021/06/04 22:44:30;;;;;;;7.57;1.93;;;20.40;99.90;;;;;;20708331;28;20620;-64
2021/06/04 22:54:40;;;;;;;0.83;0.80;;;20.00;99.90;;;;;;20686679;28;20227;-65
2021/06/04 23:04:45;;;;;;;1.07;1.07;;;19.70;99.90;;;;;;20705090;28;20222;-64
2021/06/04 23:14:49;;;;;;;1.30;1.20;;;19.60;99.90;;;;;;20685423;28;20301;-66
2021/06/04 23:24:54;;;;;;;1.33;0.77;;;19.60;99.90;;;;;;20703155;28;20187;-65
2021/06/04 23:34:57;;;;;;;0.50;0.43;;;19.50;99.90;;;;;;20700616;28;20237;-65
2021/06/04 23:45:03;;;;;;;0.87;0.43;;;19.50;99.90;;;;;;20700402;28;20195;-66
2021/06/04 23:55:14;;;;;;;0.60;0.57;;;19.30;99.90;;;;;;20703091;28;20537;-64
